createdAt,value
2017-05-15T00:00:09.456Z,74430
2017-05-15T00:00:19.257Z,74429
2017-05-15T00:00:29.347Z,74429
2017-05-15T00:00:39.147Z,74428
2017-05-15T00:00:48.949Z,74428
2017-05-15T00:00:59.039Z,74431
2017-05-15T00:01:09.127Z,74428
2017-05-15T00:01:19.216Z,74430
2017-05-15T00:01:29.310Z,74428
2017-05-15T00:01:39.111Z,74432
2017-05-15T00:01:49.207Z,74434
2017-05-15T00:01:59.015Z,74432
2017-05-15T00:02:08.827Z,74429
2017-05-15T00:02:18.920Z,74431
2017-05-15T00:02:29.012Z,74430
2017-05-15T00:02:39.105Z,74430
2017-05-15T00:02:49.203Z,74433
2017-05-15T00:02:59.004Z,74429
2017-05-15T00:03:09.091Z,74428
2017-05-15T00:03:19.182Z,74430
2017-05-15T00:03:28.994Z,74429
2017-05-15T00:03:39.090Z,74431
2017-05-15T00:03:49.190Z,74433
2017-05-15T00:03:58.992Z,74429
2017-05-15T00:04:08.518Z,74430
2017-05-15T00:04:18.607Z,74431
2017-05-15T00:04:28.405Z,74430
2017-05-15T00:04:38.258Z,74429
2017-05-15T00:04:48.354Z,74432
2017-05-15T00:04:58.446Z,74433
2017-05-15T00:05:08.540Z,74431
2017-05-15T00:05:18.634Z,74432
2017-05-15T00:05:28.729Z,74433
2017-05-15T00:05:38.527Z,74432
2017-05-15T00:05:48.622Z,74432
2017-05-15T00:05:58.713Z,74428
2017-05-15T00:06:08.570Z,74433
2017-05-15T00:06:18.660Z,74432
2017-05-15T00:06:28.754Z,74430
2017-05-15T00:06:38.854Z,74431
2017-05-15T00:06:48.945Z,74429
2017-05-15T00:06:59.042Z,74430
2017-05-15T00:07:08.566Z,74432
2017-05-15T00:07:18.660Z,74427
2017-05-15T00:07:28.746Z,74430
2017-05-15T00:07:38.843Z,74431
2017-05-15T00:07:48.942Z,74431
2017-05-15T00:07:59.039Z,74428
2017-05-15T00:08:08.557Z,74431
2017-05-15T00:08:18.651Z,74432
2017-05-15T00:08:28.172Z,74429
2017-05-15T00:08:37.979Z,74432
2017-05-15T00:08:48.133Z,74429
2017-05-15T00:08:58.229Z,74431
2017-05-15T00:09:07.741Z,74432
2017-05-15T00:09:17.833Z,74433
2017-05-15T00:09:27.928Z,74431
2017-05-15T00:09:37.733Z,74429
2017-05-15T00:09:47.830Z,74428
2017-05-15T00:09:57.650Z,74429
2017-05-15T00:10:07.743Z,74431
2017-05-15T00:10:17.251Z,74428
2017-05-15T00:10:27.347Z,74429
2017-05-15T00:10:37.153Z,74432
2017-05-15T00:10:47.292Z,74429
2017-05-15T00:10:57.380Z,74426
2017-05-15T00:11:07.181Z,74428
2017-05-15T00:11:17.275Z,74427
2017-05-15T00:11:27.080Z,74425
2017-05-15T00:11:36.642Z,74426
2017-05-15T00:11:46.733Z,74425
2017-05-15T00:11:56.830Z,74429
2017-05-15T00:12:06.926Z,74427
2017-05-15T00:12:16.736Z,74428
2017-05-15T00:12:26.825Z,74428
2017-05-15T00:12:36.916Z,74426
2017-05-15T00:12:47.018Z,74425
2017-05-15T00:12:56.824Z,74429
2017-05-15T00:13:06.918Z,74429
2017-05-15T00:13:16.434Z,74428
2017-05-15T00:13:26.527Z,74429
2017-05-15T00:13:36.660Z,74424
2017-05-15T00:13:46.761Z,74429
2017-05-15T00:13:56.566Z,74427
2017-05-15T00:14:06.372Z,74431
2017-05-15T00:14:16.469Z,74431
2017-05-15T00:14:26.577Z,74431
2017-05-15T00:14:36.380Z,74429
2017-05-15T00:14:46.470Z,74430
2017-05-15T00:14:56.566Z,74431
2017-05-15T00:15:06.419Z,74431
2017-05-15T00:15:16.506Z,74431
2017-05-15T00:15:26.306Z,74430
2017-05-15T00:15:36.407Z,74430
2017-05-15T00:15:46.497Z,74428
2017-05-15T00:15:56.587Z,74428
2017-05-15T00:16:06.677Z,74428
2017-05-15T00:16:16.489Z,74430
2017-05-15T00:16:26.585Z,74431
2017-05-15T00:16:36.670Z,74430
2017-05-15T00:16:46.762Z,74430
2017-05-15T00:16:56.852Z,74433
2017-05-15T00:17:06.940Z,74435
2017-05-15T00:17:16.743Z,74434
2017-05-15T00:17:26.839Z,74431
2017-05-15T00:17:36.645Z,74430
2017-05-15T00:17:46.449Z,74430
2017-05-15T00:17:56.250Z,74434
2017-05-15T00:18:06.348Z,74432
2017-05-15T00:18:16.156Z,74431
2017-05-15T00:18:25.669Z,74431
2017-05-15T00:18:35.754Z,74432
2017-05-15T00:18:45.556Z,74430
2017-05-15T00:18:55.371Z,74430
2017-05-15T00:19:05.466Z,74431
2017-05-15T00:19:15.564Z,74428
2017-05-15T00:19:25.655Z,74432
2017-05-15T00:19:35.748Z,74429
2017-05-15T00:19:45.556Z,74430
2017-05-15T00:19:55.655Z,74424
2017-05-15T00:20:05.455Z,74429
2017-05-15T00:20:15.254Z,74431
2017-05-15T00:20:25.347Z,74433
2017-05-15T00:20:35.150Z,74431
2017-05-15T00:20:44.961Z,74430
2017-05-15T00:20:55.060Z,74427
2017-05-15T00:21:05.195Z,74430
2017-05-15T00:21:15.313Z,74430
2017-05-15T00:21:25.115Z,74428
2017-05-15T00:21:35.203Z,74428
2017-05-15T00:21:45.012Z,74429
2017-05-15T00:21:54.523Z,74428
2017-05-15T00:22:04.656Z,74431
2017-05-15T00:22:14.462Z,74434
2017-05-15T00:22:24.569Z,74430
2017-05-15T00:22:34.373Z,74433
2017-05-15T00:22:44.179Z,74431
2017-05-15T00:22:54.272Z,74429
2017-05-15T00:23:04.362Z,74430
2017-05-15T00:23:14.172Z,74430
2017-05-15T00:23:23.975Z,74425
2017-05-15T00:23:34.072Z,74429
2017-05-15T00:23:44.169Z,74427
2017-05-15T00:23:53.980Z,74425
2017-05-15T00:24:04.077Z,74425
2017-05-15T00:24:14.170Z,74427
2017-05-15T00:24:24.264Z,74429
2017-05-15T00:24:34.075Z,74428
2017-05-15T00:24:44.166Z,74429
2017-05-15T00:24:54.262Z,74430
2017-05-15T00:25:04.353Z,74428
2017-05-15T00:25:14.156Z,74431
2017-05-15T00:25:24.254Z,74431
2017-05-15T00:25:34.346Z,74431
2017-05-15T00:25:44.150Z,74428
2017-05-15T00:25:53.960Z,74427
2017-05-15T00:26:04.058Z,74426
2017-05-15T00:26:14.153Z,74429
2017-05-15T00:26:23.955Z,74429
2017-05-15T00:26:34.045Z,74430
2017-05-15T00:26:44.138Z,74427
2017-05-15T00:26:53.942Z,74430
2017-05-15T00:27:04.036Z,74427
2017-05-15T00:27:14.133Z,74430
2017-05-15T00:27:24.228Z,74425
2017-05-15T00:27:34.325Z,74428
2017-05-15T00:27:44.132Z,74429
2017-05-15T00:27:54.232Z,74426
2017-05-15T00:28:04.039Z,74428
2017-05-15T00:28:13.847Z,74428
2017-05-15T00:28:23.944Z,74430
2017-05-15T00:28:34.041Z,74427
2017-05-15T00:28:44.130Z,74426
2017-05-15T00:28:54.222Z,74426
2017-05-15T00:29:04.313Z,74428
2017-05-15T00:29:14.408Z,74428
2017-05-15T00:29:24.215Z,74426
2017-05-15T00:29:34.304Z,74427
2017-05-15T00:29:44.111Z,74425
2017-05-15T00:29:54.203Z,74426
2017-05-15T00:30:04.009Z,74428
2017-05-15T00:30:13.817Z,74427
2017-05-15T00:30:23.907Z,74426
2017-05-15T00:30:34.003Z,74427
2017-05-15T00:30:44.092Z,74426
2017-05-15T00:30:54.196Z,74424
2017-05-15T00:31:04.001Z,74426
2017-05-15T00:31:14.090Z,74425
2017-05-15T00:31:24.181Z,74423
2017-05-15T00:31:34.269Z,74422
2017-05-15T00:31:44.360Z,74427
2017-05-15T00:31:54.486Z,74423
2017-05-15T00:32:04.593Z,74423
2017-05-15T00:32:14.403Z,74423
2017-05-15T00:32:24.220Z,74424
2017-05-15T00:32:34.308Z,74425
2017-05-15T00:32:44.123Z,74423
2017-05-15T00:32:54.213Z,74422
2017-05-15T00:33:04.303Z,74423
2017-05-15T00:33:14.399Z,74421
2017-05-15T00:33:24.495Z,74423
2017-05-15T00:33:34.584Z,74423
2017-05-15T00:33:44.388Z,74421
2017-05-15T00:33:54.489Z,74422
2017-05-15T00:34:04.587Z,74422
2017-05-15T00:34:14.107Z,74422
2017-05-15T00:34:23.914Z,74420
2017-05-15T00:34:34.003Z,74421
2017-05-15T00:34:44.091Z,74425
2017-05-15T00:34:54.180Z,74422
2017-05-15T00:35:03.984Z,74419
2017-05-15T00:35:14.072Z,74420
2017-05-15T00:35:24.163Z,74421
2017-05-15T00:35:34.258Z,74422
2017-05-15T00:35:44.071Z,74420
2017-05-15T00:35:53.876Z,74420
2017-05-15T00:36:03.963Z,74419
2017-05-15T00:36:13.769Z,74418
2017-05-15T00:36:23.570Z,74423
2017-05-15T00:36:33.671Z,74425
2017-05-15T00:36:43.760Z,74423
2017-05-15T00:36:53.853Z,74419
2017-05-15T00:37:03.658Z,74421
2017-05-15T00:37:13.748Z,74422
2017-05-15T00:37:23.836Z,74426
2017-05-15T00:37:33.932Z,74425
2017-05-15T00:37:43.747Z,74425
2017-05-15T00:37:53.842Z,74422
2017-05-15T00:38:03.935Z,74424
2017-05-15T00:38:14.026Z,74421
2017-05-15T00:38:24.116Z,74421
2017-05-15T00:38:34.208Z,74422
2017-05-15T00:38:44.014Z,74420
2017-05-15T00:38:54.111Z,74418
2017-05-15T00:39:04.206Z,74414
2017-05-15T00:39:14.302Z,74419
2017-05-15T00:39:24.391Z,74418
2017-05-15T00:39:34.491Z,74416
2017-05-15T00:39:43.722Z,74419
2017-05-15T00:39:53.528Z,74421
2017-05-15T00:40:03.626Z,74421
2017-05-15T00:40:13.426Z,74417
2017-05-15T00:40:23.526Z,74421
2017-05-15T00:40:33.614Z,74425
2017-05-15T00:40:43.706Z,74420
2017-05-15T00:40:53.803Z,74422
2017-05-15T00:41:03.891Z,74423
2017-05-15T00:41:13.982Z,74422
2017-05-15T00:41:24.070Z,74422
2017-05-15T00:41:34.158Z,74421
2017-05-15T00:41:44.254Z,74422
2017-05-15T00:41:54.350Z,74421
2017-05-15T00:42:04.157Z,74423
2017-05-15T00:42:13.675Z,74425
2017-05-15T00:42:23.789Z,74423
2017-05-15T00:42:33.884Z,74424
2017-05-15T00:42:43.976Z,74422
2017-05-15T00:42:54.071Z,74420
2017-05-15T00:43:04.157Z,74419
2017-05-15T00:43:14.300Z,74419
2017-05-15T00:43:24.399Z,74425
2017-05-15T00:43:34.495Z,74425
2017-05-15T00:43:44.308Z,74421
2017-05-15T00:43:54.398Z,74421
2017-05-15T00:44:04.499Z,74422
2017-05-15T00:44:14.019Z,74424
2017-05-15T00:44:24.111Z,74423
2017-05-15T00:44:34.199Z,74426
2017-05-15T00:44:44.300Z,74425
2017-05-15T00:44:54.391Z,74422
2017-05-15T00:45:04.196Z,74423
2017-05-15T00:45:14.001Z,74427
2017-05-15T00:45:24.090Z,74425
2017-05-15T00:45:34.182Z,74426
2017-05-15T00:45:44.271Z,74424
2017-05-15T00:45:54.367Z,74421
2017-05-15T00:46:04.462Z,74421
2017-05-15T00:46:14.267Z,74426
2017-05-15T00:46:24.081Z,74423
2017-05-15T00:46:34.175Z,74420
2017-05-15T00:46:44.267Z,74423
2017-05-15T00:46:54.073Z,74425
2017-05-15T00:47:03.923Z,74423
2017-05-15T00:47:13.737Z,74420
2017-05-15T00:47:23.830Z,74423
2017-05-15T00:47:33.926Z,74425
2017-05-15T00:47:44.018Z,74425
2017-05-15T00:47:54.122Z,74425
2017-05-15T00:48:04.213Z,74426
2017-05-15T00:48:14.316Z,74426
2017-05-15T00:48:24.409Z,74428
2017-05-15T00:48:34.518Z,74427
2017-05-15T00:48:44.376Z,74427
2017-05-15T00:48:54.476Z,74428
2017-05-15T00:49:04.574Z,74426
2017-05-15T00:49:14.671Z,74423
2017-05-15T00:49:24.762Z,74425
2017-05-15T00:49:34.568Z,74426
2017-05-15T00:49:44.380Z,74424
2017-05-15T00:49:54.476Z,74425
2017-05-15T00:50:04.567Z,74427
2017-05-15T00:50:14.414Z,74424
2017-05-15T00:50:24.222Z,74422
2017-05-15T00:50:34.310Z,74422
2017-05-15T00:50:44.399Z,74422
2017-05-15T00:50:54.487Z,74423
2017-05-15T00:51:04.580Z,74422
2017-05-15T00:51:14.670Z,74423
2017-05-15T00:51:24.469Z,74424
2017-05-15T00:51:34.562Z,74420
2017-05-15T00:51:44.656Z,74424
2017-05-15T00:51:54.750Z,74424
2017-05-15T00:52:04.559Z,74422
2017-05-15T00:52:14.075Z,74424
2017-05-15T00:52:24.173Z,74422
2017-05-15T00:52:34.262Z,74422
2017-05-15T00:52:44.389Z,74421
2017-05-15T00:52:54.504Z,74422
2017-05-15T00:53:04.311Z,74426
2017-05-15T00:53:13.828Z,74421
2017-05-15T00:53:23.920Z,74424
2017-05-15T00:53:34.025Z,74430
2017-05-15T00:53:44.124Z,74425
2017-05-15T00:53:54.225Z,74428
2017-05-15T00:54:04.325Z,74428
2017-05-15T00:54:14.125Z,74428
2017-05-15T00:54:24.238Z,74426
2017-05-15T00:54:34.335Z,74430
2017-05-15T00:54:43.849Z,74432
2017-05-15T00:54:53.944Z,74427
2017-05-15T00:55:04.044Z,74430
2017-05-15T00:55:13.854Z,74431
2017-05-15T00:55:23.370Z,74428
2017-05-15T00:55:33.177Z,74435
2017-05-15T00:55:42.696Z,74429
2017-05-15T00:55:52.789Z,74432
2017-05-15T00:56:02.592Z,74434
2017-05-15T00:56:12.394Z,74431
2017-05-15T00:56:22.195Z,74431
2017-05-15T00:56:32.290Z,74425
2017-05-15T00:56:42.094Z,74430
2017-05-15T00:56:52.185Z,74426
2017-05-15T00:57:01.713Z,74426
2017-05-15T00:57:11.815Z,74431
2017-05-15T00:57:21.621Z,74426
2017-05-15T00:57:31.764Z,74429
2017-05-15T00:57:41.868Z,74436
2017-05-15T00:57:51.962Z,74428
2017-05-15T00:58:02.060Z,74432
2017-05-15T00:58:11.871Z,74434
2017-05-15T00:58:21.685Z,74429
2017-05-15T00:58:31.491Z,74427
2017-05-15T00:58:41.583Z,74432
2017-05-15T00:58:51.680Z,74433
2017-05-15T00:59:01.776Z,74429
2017-05-15T00:59:11.871Z,74428
2017-05-15T00:59:21.677Z,74426
2017-05-15T00:59:31.764Z,74429
2017-05-15T00:59:41.853Z,74428
2017-05-15T00:59:51.954Z,74430
2017-05-15T01:00:02.107Z,74428
2017-05-15T01:00:11.916Z,74429
2017-05-15T01:00:22.003Z,74430
2017-05-15T01:00:32.098Z,74432
2017-05-15T01:00:41.905Z,74432
2017-05-15T01:00:51.994Z,74430
2017-05-15T01:01:02.091Z,74430
2017-05-15T01:01:11.900Z,74431
2017-05-15T01:01:21.701Z,74430
2017-05-15T01:01:31.512Z,74428
2017-05-15T01:01:41.605Z,74428
2017-05-15T01:01:51.699Z,74432
2017-05-15T01:02:01.505Z,74433
2017-05-15T01:02:11.599Z,74432
2017-05-15T01:02:21.407Z,74433
2017-05-15T01:02:31.502Z,74435
2017-05-15T01:02:41.592Z,74432
2017-05-15T01:02:51.742Z,74434
2017-05-15T01:03:01.838Z,74429
2017-05-15T01:03:11.931Z,74432
2017-05-15T01:03:22.022Z,74432
2017-05-15T01:03:32.112Z,74428
2017-05-15T01:03:41.916Z,74428
2017-05-15T01:03:52.009Z,74430
2017-05-15T01:04:02.106Z,74427
2017-05-15T01:04:11.914Z,74426
2017-05-15T01:04:21.726Z,74427
2017-05-15T01:04:31.817Z,74430
2017-05-15T01:04:41.912Z,74428
2017-05-15T01:04:52.001Z,74429
2017-05-15T01:05:02.098Z,74432
2017-05-15T01:05:12.186Z,74427
2017-05-15T01:05:22.281Z,74434
2017-05-15T01:05:32.375Z,74435
2017-05-15T01:05:42.179Z,74429
2017-05-15T01:05:52.278Z,74432
2017-05-15T01:06:02.375Z,74429
2017-05-15T01:06:12.182Z,74433
2017-05-15T01:06:21.991Z,74430
2017-05-15T01:06:32.087Z,74429
2017-05-15T01:06:41.894Z,74429
2017-05-15T01:06:51.416Z,74434
2017-05-15T01:07:01.222Z,74430
2017-05-15T01:07:11.323Z,74430
2017-05-15T01:07:21.413Z,74432
2017-05-15T01:07:31.505Z,74432
2017-05-15T01:07:41.320Z,74427
2017-05-15T01:07:51.422Z,74427
2017-05-15T01:08:01.287Z,74432
2017-05-15T01:08:11.382Z,74429
2017-05-15T01:08:21.472Z,74433
2017-05-15T01:08:31.286Z,74434
2017-05-15T01:08:41.086Z,74434
2017-05-15T01:08:51.173Z,74435
2017-05-15T01:09:01.265Z,74436
2017-05-15T01:09:11.402Z,74435
2017-05-15T01:09:21.213Z,74437
2017-05-15T01:09:31.304Z,74434
2017-05-15T01:09:41.393Z,74436
2017-05-15T01:09:51.489Z,74435
2017-05-15T01:10:01.580Z,74438
2017-05-15T01:10:11.390Z,74436
2017-05-15T01:10:21.476Z,74435
2017-05-15T01:10:31.576Z,74435
2017-05-15T01:10:41.674Z,74438
2017-05-15T01:10:51.776Z,74438
2017-05-15T01:11:01.864Z,74435
2017-05-15T01:11:11.957Z,74435
2017-05-15T01:11:22.055Z,74441
2017-05-15T01:11:32.148Z,74435
2017-05-15T01:11:41.957Z,74434
2017-05-15T01:11:52.048Z,74435
2017-05-15T01:12:02.135Z,74433
2017-05-15T01:12:12.220Z,74436
2017-05-15T01:12:22.035Z,74436
2017-05-15T01:12:32.132Z,74439
2017-05-15T01:12:42.231Z,74435
2017-05-15T01:12:52.347Z,74430
2017-05-15T01:13:02.435Z,74434
2017-05-15T01:13:12.240Z,74438
2017-05-15T01:13:22.327Z,74433
2017-05-15T01:13:32.423Z,74440
2017-05-15T01:13:42.224Z,74437
2017-05-15T01:13:52.319Z,74438
2017-05-15T01:14:02.123Z,74435
2017-05-15T01:14:11.925Z,74441
2017-05-15T01:14:22.024Z,74435
2017-05-15T01:14:32.116Z,74432
2017-05-15T01:14:42.206Z,74439
2017-05-15T01:14:52.297Z,74438
2017-05-15T01:15:02.388Z,74436
2017-05-15T01:15:12.195Z,74439
2017-05-15T01:15:21.994Z,74437
2017-05-15T01:15:32.092Z,74433
2017-05-15T01:15:41.895Z,74437
2017-05-15T01:15:51.987Z,74440
2017-05-15T01:16:02.079Z,74434
2017-05-15T01:16:12.168Z,74436
2017-05-15T01:16:21.972Z,74437
2017-05-15T01:16:32.062Z,74436
2017-05-15T01:16:41.871Z,74437
2017-05-15T01:16:51.967Z,74435
2017-05-15T01:17:02.058Z,74439
2017-05-15T01:17:12.152Z,74436
2017-05-15T01:17:22.242Z,74437
2017-05-15T01:17:32.332Z,74440
2017-05-15T01:17:42.423Z,74436
2017-05-15T01:17:52.522Z,74438
2017-05-15T01:18:02.612Z,74438
2017-05-15T01:18:12.708Z,74438
2017-05-15T01:18:22.517Z,74435
2017-05-15T01:18:32.610Z,74436
2017-05-15T01:18:42.132Z,74434
2017-05-15T01:18:52.234Z,74434
2017-05-15T01:19:02.329Z,74435
2017-05-15T01:19:11.851Z,74436
2017-05-15T01:19:21.713Z,74436
2017-05-15T01:19:31.804Z,74435
2017-05-15T01:19:41.603Z,74431
2017-05-15T01:19:51.705Z,74432
2017-05-15T01:20:01.559Z,74432
2017-05-15T01:20:11.658Z,74432
2017-05-15T01:20:21.470Z,74431
2017-05-15T01:20:31.557Z,74431
2017-05-15T01:20:41.674Z,74433
2017-05-15T01:20:51.766Z,74430
2017-05-15T01:21:01.854Z,74434
2017-05-15T01:21:11.947Z,74431
2017-05-15T01:21:22.047Z,74432
2017-05-15T01:21:32.147Z,74433
2017-05-15T01:21:41.956Z,74431
2017-05-15T01:21:52.041Z,74433
2017-05-15T01:22:02.135Z,74435
2017-05-15T01:22:12.224Z,74430
2017-05-15T01:22:22.316Z,74433
2017-05-15T01:22:32.418Z,74429
2017-05-15T01:22:41.931Z,74433
2017-05-15T01:22:52.032Z,74433
2017-05-15T01:23:02.133Z,74432
2017-05-15T01:23:12.224Z,74434
2017-05-15T01:23:22.334Z,74432
2017-05-15T01:23:32.422Z,74430
2017-05-15T01:23:42.221Z,74428
2017-05-15T01:23:52.364Z,74432
2017-05-15T01:24:02.169Z,74429
2017-05-15T01:24:12.262Z,74430
2017-05-15T01:24:22.351Z,74429
2017-05-15T01:24:32.439Z,74429
2017-05-15T01:24:42.242Z,74428
2017-05-15T01:24:52.077Z,74430
2017-05-15T01:25:02.174Z,74430
2017-05-15T01:25:12.266Z,74426
2017-05-15T01:25:22.359Z,74429
2017-05-15T01:25:31.887Z,74428
2017-05-15T01:25:42.026Z,74429
2017-05-15T01:25:52.117Z,74428
2017-05-15T01:26:02.212Z,74427
2017-05-15T01:26:12.308Z,74432
2017-05-15T01:26:22.397Z,74426
2017-05-15T01:26:32.258Z,74427
2017-05-15T01:26:42.064Z,74430
2017-05-15T01:26:52.153Z,74431
2017-05-15T01:27:02.245Z,74429
2017-05-15T01:27:12.338Z,74431
2017-05-15T01:27:22.430Z,74432
2017-05-15T01:27:32.523Z,74431
2017-05-15T01:27:42.386Z,74432
2017-05-15T01:27:52.477Z,74432
2017-05-15T01:28:01.995Z,74434
2017-05-15T01:28:12.087Z,74431
2017-05-15T01:28:22.187Z,74432
2017-05-15T01:28:32.282Z,74431
2017-05-15T01:28:42.381Z,74431
2017-05-15T01:28:52.194Z,74433
2017-05-15T01:29:02.285Z,74434
2017-05-15T01:29:12.377Z,74433
2017-05-15T01:29:22.474Z,74435
2017-05-15T01:29:32.571Z,74433
2017-05-15T01:29:42.382Z,74432
2017-05-15T01:29:52.484Z,74432
2017-05-15T01:30:02.284Z,74433
2017-05-15T01:30:12.374Z,74432
2017-05-15T01:30:22.464Z,74433
2017-05-15T01:30:32.571Z,74428
2017-05-15T01:30:42.381Z,74431
2017-05-15T01:30:52.476Z,74432
2017-05-15T01:31:02.278Z,74433
2017-05-15T01:31:12.084Z,74432
2017-05-15T01:31:21.892Z,74433
2017-05-15T01:31:31.982Z,74434
2017-05-15T01:31:41.784Z,74431
2017-05-15T01:31:51.881Z,74436
2017-05-15T01:32:01.981Z,74433
2017-05-15T01:32:12.118Z,74429
2017-05-15T01:32:22.210Z,74429
2017-05-15T01:32:32.301Z,74429
2017-05-15T01:32:42.393Z,74430
2017-05-15T01:32:52.200Z,74428
2017-05-15T01:33:02.293Z,74431
2017-05-15T01:33:12.387Z,74432
2017-05-15T01:33:22.526Z,74430
2017-05-15T01:33:32.330Z,74433
2017-05-15T01:33:42.422Z,74434
2017-05-15T01:33:52.517Z,74431
2017-05-15T01:34:02.323Z,74430
2017-05-15T01:34:11.839Z,74433
2017-05-15T01:34:21.644Z,74431
2017-05-15T01:34:31.736Z,74432
2017-05-15T01:34:41.827Z,74429
2017-05-15T01:34:51.349Z,74431
2017-05-15T01:35:01.442Z,74434
2017-05-15T01:35:11.252Z,74431
2017-05-15T01:35:21.055Z,74434
2017-05-15T01:35:31.145Z,74430
2017-05-15T01:35:40.945Z,74434
2017-05-15T01:35:51.036Z,74434
2017-05-15T01:36:01.129Z,74427
2017-05-15T01:36:10.934Z,74431
2017-05-15T01:36:21.026Z,74432
2017-05-15T01:36:31.118Z,74432
2017-05-15T01:36:40.929Z,74433
2017-05-15T01:36:50.737Z,74431
2017-05-15T01:37:00.831Z,74431
2017-05-15T01:37:10.640Z,74433
2017-05-15T01:37:20.450Z,74431
2017-05-15T01:37:30.543Z,74430
2017-05-15T01:37:40.353Z,74433
2017-05-15T01:37:50.451Z,74429
2017-05-15T01:38:00.256Z,74428
2017-05-15T01:38:10.347Z,74430
2017-05-15T01:38:20.153Z,74427
2017-05-15T01:38:30.244Z,74429
2017-05-15T01:38:40.050Z,74434
2017-05-15T01:38:50.152Z,74429
2017-05-15T01:38:59.671Z,74431
2017-05-15T01:39:09.763Z,74432
2017-05-15T01:39:19.858Z,74428
2017-05-15T01:39:29.953Z,74432
2017-05-15T01:39:40.053Z,74429
2017-05-15T01:39:49.855Z,74431
2017-05-15T01:39:59.994Z,74429
2017-05-15T01:40:09.802Z,74427
2017-05-15T01:40:19.895Z,74426
2017-05-15T01:40:29.987Z,74429
2017-05-15T01:40:39.789Z,74429
2017-05-15T01:40:49.889Z,74431
2017-05-15T01:40:59.980Z,74430
2017-05-15T01:41:09.780Z,74436
2017-05-15T01:41:19.873Z,74431
2017-05-15T01:41:29.963Z,74432
2017-05-15T01:41:40.057Z,74429
2017-05-15T01:41:50.199Z,74432
2017-05-15T01:42:00.293Z,74430
2017-05-15T01:42:10.382Z,74433
2017-05-15T01:42:20.478Z,74437
2017-05-15T01:42:30.573Z,74425
2017-05-15T01:42:40.719Z,74428
2017-05-15T01:42:50.805Z,74425
2017-05-15T01:43:00.908Z,74425
2017-05-15T01:43:11.000Z,74429
2017-05-15T01:43:21.096Z,74432
2017-05-15T01:43:31.192Z,74429
2017-05-15T01:43:40.990Z,74432
2017-05-15T01:43:51.087Z,74431
2017-05-15T01:44:01.178Z,74433
2017-05-15T01:44:10.703Z,74430
2017-05-15T01:44:20.799Z,74434
2017-05-15T01:44:30.901Z,74434
2017-05-15T01:44:40.703Z,74430
2017-05-15T01:44:50.800Z,74431
2017-05-15T01:45:00.614Z,74431
2017-05-15T01:45:09.843Z,74431
2017-05-15T01:45:19.936Z,74434
2017-05-15T01:45:30.027Z,74435
2017-05-15T01:45:39.831Z,74432
2017-05-15T01:45:49.921Z,74434
2017-05-15T01:45:59.770Z,74432
2017-05-15T01:46:09.862Z,74432
2017-05-15T01:46:20.013Z,74432
2017-05-15T01:46:30.107Z,74436
2017-05-15T01:46:39.910Z,74435
2017-05-15T01:46:49.715Z,74436
2017-05-15T01:46:59.806Z,74435
2017-05-15T01:47:09.898Z,74436
2017-05-15T01:47:19.989Z,74435
2017-05-15T01:47:29.791Z,74438
2017-05-15T01:47:39.886Z,74438
2017-05-15T01:47:49.981Z,74436
2017-05-15T01:47:59.787Z,74432
2017-05-15T01:48:09.881Z,74432
2017-05-15T01:48:19.686Z,74436
2017-05-15T01:48:29.785Z,74436
2017-05-15T01:48:39.588Z,74435
2017-05-15T01:48:49.689Z,74434
2017-05-15T01:48:59.781Z,74430
2017-05-15T01:49:09.872Z,74435
2017-05-15T01:49:19.979Z,74435
2017-05-15T01:49:29.784Z,74434
2017-05-15T01:49:39.876Z,74436
2017-05-15T01:49:49.975Z,74436
2017-05-15T01:50:00.074Z,74433
2017-05-15T01:50:09.598Z,74439
2017-05-15T01:50:19.114Z,74438
2017-05-15T01:50:28.926Z,74435
2017-05-15T01:50:39.016Z,74431
2017-05-15T01:50:49.114Z,74436
2017-05-15T01:50:58.915Z,74436
2017-05-15T01:51:08.725Z,74433
2017-05-15T01:51:18.530Z,74429
2017-05-15T01:51:28.621Z,74434
2017-05-15T01:51:38.711Z,74438
2017-05-15T01:51:48.524Z,74433
2017-05-15T01:51:58.617Z,74433
2017-05-15T01:52:08.707Z,74434
2017-05-15T01:52:18.792Z,74433
2017-05-15T01:52:28.880Z,74432
2017-05-15T01:52:38.401Z,74435
2017-05-15T01:52:48.497Z,74434
2017-05-15T01:52:58.592Z,74431
2017-05-15T01:53:08.394Z,74434
2017-05-15T01:53:18.492Z,74433
2017-05-15T01:53:28.594Z,74432
2017-05-15T01:53:38.436Z,74431
2017-05-15T01:53:48.247Z,74433
2017-05-15T01:53:58.339Z,74434
2017-05-15T01:54:08.152Z,74434
2017-05-15T01:54:18.251Z,74435
2017-05-15T01:54:28.371Z,74432
2017-05-15T01:54:38.177Z,74434
2017-05-15T01:54:48.272Z,74433
2017-05-15T01:54:58.075Z,74429
2017-05-15T01:55:08.168Z,74433
2017-05-15T01:55:18.260Z,74434
2017-05-15T01:55:28.355Z,74435
2017-05-15T01:55:38.161Z,74433
2017-05-15T01:55:48.249Z,74433
2017-05-15T01:55:58.341Z,74438
2017-05-15T01:56:08.148Z,74434
2017-05-15T01:56:18.248Z,74435
2017-05-15T01:56:28.388Z,74434
2017-05-15T01:56:38.198Z,74433
2017-05-15T01:56:48.295Z,74434
2017-05-15T01:56:58.098Z,74435
2017-05-15T01:57:08.203Z,74437
2017-05-15T01:57:18.295Z,74433
2017-05-15T01:57:27.818Z,74433
2017-05-15T01:57:37.331Z,74436
2017-05-15T01:57:47.431Z,74434
2017-05-15T01:57:57.530Z,74433
2017-05-15T01:58:07.369Z,74438
2017-05-15T01:58:17.463Z,74430
2017-05-15T01:58:26.980Z,74434
2017-05-15T01:58:37.083Z,74429
2017-05-15T01:58:47.177Z,74430
2017-05-15T01:58:57.268Z,74434
2017-05-15T01:59:07.363Z,74435
2017-05-15T01:59:17.452Z,74432
2017-05-15T01:59:27.260Z,74437
2017-05-15T01:59:37.358Z,74432
2017-05-15T01:59:47.449Z,74434
2017-05-15T01:59:56.684Z,74430
2017-05-15T02:00:06.821Z,74429
2017-05-15T02:00:16.627Z,74431
2017-05-15T02:00:26.730Z,74432
2017-05-15T02:00:36.820Z,74433
2017-05-15T02:00:46.972Z,74433
2017-05-15T02:00:56.789Z,74435
2017-05-15T02:01:06.314Z,74432
2017-05-15T02:01:16.410Z,74432
2017-05-15T02:01:26.502Z,74433
2017-05-15T02:01:36.596Z,74433
2017-05-15T02:01:46.695Z,74437
2017-05-15T02:01:56.791Z,74435
2017-05-15T02:02:06.306Z,74435
2017-05-15T02:02:16.398Z,74434
2017-05-15T02:02:26.484Z,74438
2017-05-15T02:02:36.582Z,74439
2017-05-15T02:02:46.671Z,74437
2017-05-15T02:02:56.780Z,74435
2017-05-15T02:03:06.870Z,74434
2017-05-15T02:03:16.962Z,74431
2017-05-15T02:03:27.060Z,74436
2017-05-15T02:03:37.159Z,74438
2017-05-15T02:03:47.263Z,74436
2017-05-15T02:03:57.357Z,74434
2017-05-15T02:04:07.454Z,74430
2017-05-15T02:04:17.553Z,74435
2017-05-15T02:04:27.360Z,74436
2017-05-15T02:04:37.459Z,74432
2017-05-15T02:04:47.557Z,74437
2017-05-15T02:04:57.082Z,74431
2017-05-15T02:05:07.173Z,74441
2017-05-15T02:05:16.974Z,74436
2017-05-15T02:05:26.780Z,74436
2017-05-15T02:05:36.917Z,74438
2017-05-15T02:05:47.018Z,74439
2017-05-15T02:05:57.106Z,74438
2017-05-15T02:06:07.191Z,74441
2017-05-15T02:06:16.996Z,74441
2017-05-15T02:06:27.090Z,74437
2017-05-15T02:06:36.900Z,74439
2017-05-15T02:06:46.701Z,74436
2017-05-15T02:06:56.792Z,74438
2017-05-15T02:07:06.888Z,74437
2017-05-15T02:07:16.692Z,74436
2017-05-15T02:07:26.789Z,74435
2017-05-15T02:07:36.884Z,74438
2017-05-15T02:07:47.024Z,74436
2017-05-15T02:07:57.118Z,74435
2017-05-15T02:08:06.919Z,74437
2017-05-15T02:08:17.015Z,74434
2017-05-15T02:08:26.819Z,74433
2017-05-15T02:08:36.960Z,74436